Merritt, North Carolina
Current Conditions -  °F | °C
As of 6:56 AM on Thursday 23 Oct 2014 (Local Time) from KNBT Reporting Station
Clear Clear  
Wind Chill: 54°   Ceiling: Unl
Heat Index: 54°   Visibility: 7mi
Dew Point: 45°   Wind: 17mph
Humidity: 72%   Direction: 290°WNW
Pressure: 29.96"   Gusts: NA
Location:  35.1°N, 76.71°W
Report Text: KNBT 231056Z AUTO 29015KT 7SM CLR 12/07 A2996 RMK AO2 SLP149 T01220072 PNO
Loading
Personal Weather Stations






























Interactive Weather Map
Tropical Storm Tracking
New forecast layout! Learn more

10-Day Weather Forecast

Advertisements
Track Severe Weather on mobile